createdAt,value
2023-10-06T00:02:21.838Z,1.37
2023-10-06T00:04:49.146Z,1.53
2023-10-06T00:07:15.948Z,1.53
2023-10-06T00:09:44.804Z,1.63
2023-10-06T00:12:14.337Z,1.30
2023-10-06T00:14:41.985Z,1.60
2023-10-06T00:17:20.582Z,2.03
2023-10-06T00:19:52.810Z,1.57
2023-10-06T00:22:19.464Z,1.47
2023-10-06T00:24:48.874Z,1.83
2023-10-06T00:27:15.699Z,0.93
2023-10-06T00:29:50.346Z,1.13
2023-10-06T00:32:22.649Z,1.77
2023-10-06T00:35:09.783Z,1.80
2023-10-06T00:37:40.965Z,1.83
2023-10-06T00:40:21.092Z,1.73
2023-10-06T00:42:52.422Z,1.73
2023-10-06T00:45:18.915Z,1.50
2023-10-06T00:47:45.538Z,1.57
2023-10-06T00:50:13.132Z,1.37
2023-10-06T00:52:41.483Z,1.63
2023-10-06T00:55:11.916Z,2.07
2023-10-06T00:57:38.856Z,1.53
2023-10-06T01:00:21.561Z,1.37
2023-10-06T01:02:49.506Z,2.30
2023-10-06T01:05:20.696Z,1.30
2023-10-06T01:07:47.255Z,1.17
2023-10-06T01:10:29.515Z,1.43
2023-10-06T01:12:57.915Z,2.10
2023-10-06T01:15:30.157Z,1.93
2023-10-06T01:17:58.957Z,2.70
2023-10-06T01:20:42.652Z,1.73
2023-10-06T01:23:20.779Z,1.23
2023-10-06T01:25:47.976Z,1.27
2023-10-06T01:28:14.516Z,1.20
2023-10-06T01:30:41.261Z,1.40
2023-10-06T01:33:08.181Z,1.40
2023-10-06T01:35:43.567Z,1.83
2023-10-06T01:38:21.078Z,2.10
2023-10-06T01:40:57.317Z,2.10
2023-10-06T01:43:24.189Z,1.27
2023-10-06T01:45:52.200Z,1.70
2023-10-06T01:48:21.455Z,1.30
2023-10-06T01:50:50.863Z,1.10
2023-10-06T01:53:21.236Z,1.97
2023-10-06T01:55:57.102Z,1.10
2023-10-06T01:58:23.629Z,1.27
2023-10-06T02:00:50.566Z,2.03
2023-10-06T02:03:22.665Z,1.50
2023-10-06T02:05:49.594Z,1.23
2023-10-06T02:08:22.402Z,2.40
2023-10-06T02:10:51.215Z,2.00
2023-10-06T02:13:22.172Z,1.80
2023-10-06T02:15:59.891Z,1.20
2023-10-06T02:18:36.988Z,1.30
2023-10-06T02:21:17.787Z,1.20
2023-10-06T02:23:45.210Z,1.30
2023-10-06T02:26:13.512Z,1.33
2023-10-06T02:28:49.281Z,1.23
2023-10-06T02:31:17.044Z,1.70
2023-10-06T02:33:49.074Z,1.90
2023-10-06T02:36:24.944Z,2.43
2023-10-06T02:38:52.505Z,1.20
2023-10-06T02:41:21.907Z,1.30
2023-10-06T02:43:53.019Z,2.00
2023-10-06T02:46:24.893Z,1.80
2023-10-06T02:48:51.789Z,1.33
2023-10-06T02:51:30.554Z,1.27
2023-10-06T02:54:10.984Z,1.50
2023-10-06T02:56:38.175Z,1.33
2023-10-06T02:59:21.546Z,1.63
2023-10-06T03:01:53.960Z,2.07
2023-10-06T03:04:26.691Z,1.50
2023-10-06T03:06:55.098Z,1.40
2023-10-06T03:09:22.064Z,1.27
2023-10-06T03:11:50.659Z,1.57
2023-10-06T03:14:25.601Z,1.73
2023-10-06T03:16:52.763Z,2.03
2023-10-06T03:19:25.548Z,1.40
2023-10-06T03:21:57.534Z,1.80
2023-10-06T03:24:32.306Z,1.53
2023-10-06T03:26:59.956Z,1.50
2023-10-06T03:29:45.020Z,1.70
2023-10-06T03:32:20.036Z,1.40
2023-10-06T03:34:48.175Z,2.33
2023-10-06T03:37:26.500Z,3.03
2023-10-06T03:39:54.680Z,2.67
2023-10-06T03:42:21.846Z,1.70
2023-10-06T03:45:06.325Z,1.70
2023-10-06T03:47:32.855Z,2.10
2023-10-06T03:49:59.462Z,1.53
2023-10-06T03:52:26.273Z,2.03
2023-10-06T03:54:57.464Z,1.40
2023-10-06T03:57:24.136Z,2.10
2023-10-06T03:59:50.662Z,2.33
2023-10-06T04:02:17.292Z,1.57
2023-10-06T04:04:43.757Z,2.20
2023-10-06T04:07:10.213Z,1.73
2023-10-06T04:09:36.870Z,1.87
2023-10-06T04:12:03.996Z,1.70
2023-10-06T04:14:33.038Z,1.67
2023-10-06T04:17:02.302Z,2.20
2023-10-06T04:19:28.882Z,1.60
2023-10-06T04:21:55.295Z,2.83
2023-10-06T04:24:21.665Z,1.60
2023-10-06T04:26:48.138Z,1.33
2023-10-06T04:29:17.808Z,1.77
2023-10-06T04:31:47.208Z,1.43
2023-10-06T04:34:15.026Z,1.83
2023-10-06T04:36:41.516Z,1.90
2023-10-06T04:39:12.436Z,1.43
2023-10-06T04:41:42.220Z,2.23
2023-10-06T04:44:08.764Z,2.33
2023-10-06T04:46:36.460Z,1.73
2023-10-06T04:49:03.229Z,1.80
2023-10-06T04:51:29.674Z,2.57
2023-10-06T04:53:56.309Z,2.03
2023-10-06T04:56:23.532Z,2.70
2023-10-06T04:58:50.018Z,1.90
2023-10-06T05:01:17.691Z,1.50
2023-10-06T05:03:45.089Z,1.83
2023-10-06T05:06:22.416Z,2.17
2023-10-06T05:08:50.099Z,1.80
2023-10-06T05:11:18.949Z,1.27
2023-10-06T05:13:48.944Z,1.33
2023-10-06T05:16:15.504Z,1.10
2023-10-06T05:18:42.160Z,1.30
2023-10-06T05:21:08.701Z,2.20
2023-10-06T05:23:38.914Z,1.27
2023-10-06T05:26:09.424Z,1.63
2023-10-06T05:28:38.366Z,1.03
2023-10-06T05:31:08.179Z,1.43
2023-10-06T05:33:34.994Z,1.83
2023-10-06T05:36:10.926Z,1.30
2023-10-06T05:38:38.644Z,1.13
2023-10-06T05:41:08.856Z,1.83
2023-10-06T05:43:35.742Z,1.70
2023-10-06T05:46:04.155Z,1.33
2023-10-06T05:48:31.762Z,2.00
2023-10-06T05:51:06.250Z,1.30
2023-10-06T05:53:39.927Z,1.57
2023-10-06T05:56:09.842Z,1.33
2023-10-06T05:58:38.699Z,1.50
2023-10-06T06:01:12.142Z,1.63
2023-10-06T06:03:47.439Z,1.40
2023-10-06T06:06:23.602Z,2.40
2023-10-06T06:08:52.198Z,1.33
2023-10-06T06:11:18.791Z,2.13
2023-10-06T06:13:52.903Z,1.53
2023-10-06T06:16:22.670Z,1.17
2023-10-06T06:18:50.087Z,1.80
2023-10-06T06:21:17.585Z,1.80
2023-10-06T06:23:47.425Z,1.40
2023-10-06T06:26:18.092Z,1.17
2023-10-06T06:28:45.801Z,1.13
2023-10-06T06:31:19.585Z,1.37
2023-10-06T06:33:57.055Z,1.97
2023-10-06T06:36:23.586Z,1.80
2023-10-06T06:38:50.624Z,1.97
2023-10-06T06:41:17.103Z,1.80
2023-10-06T06:43:46.897Z,1.70
2023-10-06T06:46:14.310Z,1.80
2023-10-06T06:48:40.894Z,1.60
2023-10-06T06:51:07.348Z,2.00
2023-10-06T06:53:33.871Z,1.53
2023-10-06T06:56:00.460Z,1.83
2023-10-06T06:58:27.399Z,1.53
2023-10-06T07:00:54.312Z,2.40
2023-10-06T07:03:20.838Z,2.30
2023-10-06T07:05:47.250Z,2.70
2023-10-06T07:08:13.866Z,2.03
2023-10-06T07:10:47.876Z,2.13
2023-10-06T07:13:14.994Z,2.13
2023-10-06T07:15:42.651Z,2.53
2023-10-06T07:18:11.571Z,2.27
2023-10-06T07:20:38.302Z,2.60
2023-10-06T07:23:05.585Z,2.10
2023-10-06T07:25:32.447Z,1.93
2023-10-06T07:28:00.331Z,1.20
2023-10-06T07:30:35.420Z,1.67
2023-10-06T07:33:04.423Z,1.83
2023-10-06T07:35:38.278Z,1.90
2023-10-06T07:38:05.079Z,2.93
2023-10-06T07:40:32.358Z,2.57
2023-10-06T07:42:59.850Z,2.17
2023-10-06T07:45:30.226Z,2.40
2023-10-06T07:47:56.870Z,1.70
2023-10-06T07:50:23.530Z,2.00
2023-10-06T07:52:50.203Z,1.63
2023-10-06T07:55:18.032Z,1.87
2023-10-06T07:57:49.296Z,1.83
2023-10-06T08:00:28.405Z,2.10
2023-10-06T08:02:59.985Z,1.60
2023-10-06T08:05:28.682Z,1.90
2023-10-06T08:08:00.395Z,2.27
2023-10-06T08:10:31.056Z,1.60
2023-10-06T08:13:01.724Z,2.23
2023-10-06T08:15:28.828Z,2.10
2023-10-06T08:17:56.937Z,1.97
2023-10-06T08:20:26.008Z,1.13
2023-10-06T08:22:53.422Z,2.37
2023-10-06T08:25:21.103Z,1.37
2023-10-06T08:27:49.827Z,3.23
2023-10-06T08:30:17.922Z,2.83
2023-10-06T08:32:46.205Z,2.40
2023-10-06T08:35:16.669Z,1.77
2023-10-06T08:37:44.307Z,2.70
2023-10-06T08:40:18.326Z,2.30
2023-10-06T08:42:52.803Z,1.70
2023-10-06T08:45:21.960Z,1.70
2023-10-06T08:50:24.059Z,2.03
2023-10-06T08:52:52.068Z,2.47
2023-10-06T08:55:23.244Z,1.90
2023-10-06T08:57:51.816Z,2.93
2023-10-06T09:00:25.902Z,1.40
2023-10-06T09:02:55.636Z,1.60
2023-10-06T09:05:23.424Z,1.87
2023-10-06T09:07:59.279Z,1.70
2023-10-06T09:10:27.742Z,1.97
2023-10-06T09:13:06.957Z,2.03
2023-10-06T09:15:36.836Z,1.47
2023-10-06T09:18:28.250Z,1.10
2023-10-06T09:20:58.049Z,1.77
2023-10-06T09:23:37.749Z,2.13
2023-10-06T09:26:08.281Z,1.47
2023-10-06T09:28:35.624Z,1.60
2023-10-06T09:31:06.803Z,1.20
2023-10-06T09:33:36.457Z,1.63
2023-10-06T09:36:08.593Z,1.17
2023-10-06T09:38:40.172Z,1.37
2023-10-06T09:41:08.697Z,1.57
2023-10-06T09:43:37.122Z,0.93
2023-10-06T09:46:17.206Z,1.13
2023-10-06T09:48:44.261Z,1.87
2023-10-06T09:51:12.188Z,1.10
2023-10-06T09:53:40.150Z,1.80
2023-10-06T09:56:12.643Z,0.93
2023-10-06T09:58:42.141Z,1.30
2023-10-06T10:01:11.515Z,1.93
2023-10-06T10:03:39.555Z,1.63
2023-10-06T10:06:06.580Z,1.80
2023-10-06T10:08:35.159Z,2.20
2023-10-06T10:11:07.097Z,1.70
2023-10-06T10:14:11.462Z,1.93
2023-10-06T10:17:19.257Z,1.63
2023-10-06T10:19:47.826Z,1.40
2023-10-06T10:22:17.097Z,1.70
2023-10-06T10:27:19.398Z,1.37
2023-10-06T10:29:45.880Z,1.40
2023-10-06T10:32:24.231Z,2.13
2023-10-06T10:35:09.914Z,1.87
2023-10-06T10:37:52.849Z,2.20
2023-10-06T10:40:44.952Z,1.53
2023-10-06T10:43:15.501Z,1.90
2023-10-06T10:45:46.089Z,1.37
2023-10-06T10:48:15.165Z,1.67
2023-10-06T10:50:53.910Z,1.60
2023-10-06T10:53:23.969Z,1.77
2023-10-06T10:55:53.413Z,2.13
2023-10-06T10:58:50.734Z,1.30
2023-10-06T11:01:24.216Z,2.33
2023-10-06T11:04:32.203Z,1.50
2023-10-06T11:07:08.627Z,1.80
2023-10-06T11:09:38.872Z,2.17
2023-10-06T11:12:24.921Z,1.53
2023-10-06T11:14:54.008Z,2.50
2023-10-06T11:17:25.841Z,2.23
2023-10-06T11:20:26.545Z,1.50
2023-10-06T11:23:01.014Z,1.97
2023-10-06T11:25:29.860Z,1.50
2023-10-06T11:28:17.978Z,2.70
2023-10-06T11:30:44.865Z,1.70
2023-10-06T11:33:12.956Z,2.00
2023-10-06T11:35:41.790Z,1.33
2023-10-06T11:38:12.547Z,1.70
2023-10-06T11:40:39.460Z,2.20
2023-10-06T11:43:24.621Z,1.90
2023-10-06T11:46:10.607Z,1.80
2023-10-06T11:48:37.642Z,1.50
2023-10-06T11:51:09.520Z,1.20
2023-10-06T11:53:37.938Z,1.63
2023-10-06T11:56:05.834Z,1.97
2023-10-06T11:58:37.272Z,1.93
2023-10-06T12:01:04.758Z,2.22
2023-10-06T12:03:40.731Z,2.00
2023-10-06T12:06:13.588Z,1.27
2023-10-06T12:08:46.612Z,1.70
2023-10-06T12:11:13.608Z,1.90
2023-10-06T12:13:40.550Z,1.30
2023-10-06T12:16:14.932Z,1.47
2023-10-06T12:18:45.701Z,1.13
2023-10-06T12:21:15.213Z,1.77
2023-10-06T12:23:42.768Z,1.33
2023-10-06T12:26:09.365Z,1.17
2023-10-06T12:28:35.916Z,2.27
2023-10-06T12:31:03.952Z,1.50
2023-10-06T12:33:30.620Z,1.53
2023-10-06T12:35:57.106Z,2.30
2023-10-06T12:38:24.163Z,1.20
2023-10-06T12:40:50.696Z,1.20
2023-10-06T12:43:23.812Z,1.90
2023-10-06T12:45:51.215Z,2.40
2023-10-06T12:48:17.748Z,2.30
2023-10-06T12:50:44.584Z,1.80
2023-10-06T12:53:12.831Z,1.50
2023-10-06T12:55:45.781Z,1.33
2023-10-06T12:58:16.272Z,1.30
2023-10-06T13:00:43.275Z,1.80
2023-10-06T13:03:16.812Z,1.70
2023-10-06T13:05:49.682Z,1.70
2023-10-06T13:08:22.200Z,1.70
2023-10-06T13:10:49.527Z,2.00
2023-10-06T13:13:19.084Z,1.27
2023-10-06T13:15:46.639Z,1.80
2023-10-06T13:18:14.233Z,1.70
2023-10-06T13:20:41.741Z,1.33
2023-10-06T13:23:08.281Z,1.47
2023-10-06T13:25:42.340Z,1.90
2023-10-06T13:28:16.239Z,1.60
2023-10-06T13:30:47.015Z,1.47
2023-10-06T13:33:15.449Z,1.40
2023-10-06T13:35:45.157Z,1.97
2023-10-06T13:38:13.825Z,1.50
2023-10-06T13:40:41.658Z,2.03
2023-10-06T13:43:08.555Z,1.70
2023-10-06T13:45:35.633Z,1.67
2023-10-06T13:48:05.086Z,2.07
2023-10-06T13:50:32.365Z,1.63
2023-10-06T13:52:59.071Z,1.70
2023-10-06T13:55:26.056Z,1.60
2023-10-06T13:57:53.776Z,2.70
2023-10-06T14:00:30.216Z,1.30
2023-10-06T14:03:15.155Z,1.37
2023-10-06T14:05:44.619Z,1.40
2023-10-06T14:08:14.820Z,1.73
2023-10-06T14:10:42.427Z,2.57
2023-10-06T14:13:12.459Z,1.60
2023-10-06T14:15:42.802Z,1.43
2023-10-06T14:18:13.832Z,2.40
2023-10-06T14:20:42.033Z,2.07
2023-10-06T14:23:15.888Z,1.87
2023-10-06T14:25:44.048Z,1.93
2023-10-06T14:28:10.914Z,3.07
2023-10-06T14:30:42.834Z,1.63
2023-10-06T14:33:13.959Z,2.63
2023-10-06T14:36:00.183Z,1.50
2023-10-06T14:38:31.621Z,1.40
2023-10-06T14:41:17.208Z,1.50
2023-10-06T14:44:03.650Z,1.63
2023-10-06T14:46:32.292Z,1.17
2023-10-06T14:49:04.364Z,1.77
2023-10-06T14:51:31.544Z,1.70
2023-10-06T14:54:01.363Z,1.60
2023-10-06T14:56:28.221Z,1.63
2023-10-06T14:58:58.203Z,1.90
2023-10-06T15:01:26.243Z,1.80
2023-10-06T15:03:53.515Z,1.10
2023-10-06T15:06:20.407Z,2.00
2023-10-06T15:08:49.214Z,1.43
2023-10-06T15:11:18.044Z,1.10
2023-10-06T15:13:48.155Z,1.33
2023-10-06T15:16:17.322Z,1.70
2023-10-06T15:18:47.359Z,2.37
2023-10-06T15:21:16.009Z,1.93
2023-10-06T15:23:49.713Z,1.23
2023-10-06T15:26:25.447Z,1.73
2023-10-06T15:28:52.107Z,1.77
2023-10-06T15:31:21.558Z,1.70
2023-10-06T15:33:48.355Z,2.10
2023-10-06T15:36:18.238Z,2.50
2023-10-06T15:38:45.909Z,1.53
2023-10-06T15:41:13.966Z,1.97
2023-10-06T15:43:48.177Z,2.13
2023-10-06T15:46:16.407Z,1.83
2023-10-06T15:48:43.378Z,1.70
2023-10-06T15:51:19.713Z,1.40
2023-10-06T15:53:46.239Z,2.07
2023-10-06T15:56:15.009Z,1.40
2023-10-06T15:58:42.855Z,2.27
2023-10-06T16:01:10.593Z,1.43
2023-10-06T16:03:39.730Z,1.63
2023-10-06T16:06:07.183Z,1.57
2023-10-06T16:08:33.642Z,0.90
2023-10-06T16:11:01.829Z,1.33
2023-10-06T16:13:28.913Z,1.43
2023-10-06T16:16:10.552Z,1.57
2023-10-06T16:18:38.108Z,1.33
2023-10-06T16:21:07.444Z,1.30
2023-10-06T16:23:34.047Z,1.27
2023-10-06T16:26:00.613Z,1.80
2023-10-06T16:28:27.199Z,1.60
2023-10-06T16:30:57.719Z,1.37
2023-10-06T16:33:24.787Z,1.70
2023-10-06T16:35:51.346Z,2.40
2023-10-06T16:38:18.083Z,1.07
2023-10-06T16:40:44.588Z,2.63
2023-10-06T16:43:11.302Z,1.57
2023-10-06T16:45:37.886Z,1.30
2023-10-06T16:48:05.296Z,1.87
2023-10-06T16:50:32.499Z,1.60
2023-10-06T16:52:59.409Z,2.47
2023-10-06T16:55:26.031Z,2.07
2023-10-06T16:58:00.208Z,1.47
2023-10-06T17:00:26.779Z,1.47
2023-10-06T17:02:53.421Z,1.43
2023-10-06T17:05:23.113Z,2.17
2023-10-06T17:07:52.402Z,1.83
2023-10-06T17:10:20.528Z,1.43
2023-10-06T17:12:46.967Z,1.67
2023-10-06T17:15:13.527Z,2.17
2023-10-06T17:17:47.122Z,2.57
2023-10-06T17:20:18.498Z,1.70
2023-10-06T17:22:46.132Z,1.87
2023-10-06T17:25:17.218Z,2.53
2023-10-06T17:27:45.260Z,2.50
2023-10-06T17:30:13.598Z,1.60
2023-10-06T17:32:40.213Z,1.70
2023-10-06T17:35:08.501Z,2.73
2023-10-06T17:37:35.092Z,1.60
2023-10-06T17:40:01.952Z,2.57
2023-10-06T17:42:31.012Z,2.07
2023-10-06T17:44:58.138Z,2.77
2023-10-06T17:49:52.239Z,9.37
2023-10-06T17:52:19.052Z,3.23
2023-10-06T17:54:45.590Z,2.30
2023-10-06T17:57:12.067Z,2.93
2023-10-06T17:59:39.307Z,1.90
2023-10-06T18:02:06.727Z,2.87
2023-10-06T18:04:34.428Z,2.47
2023-10-06T18:07:00.946Z,2.13
2023-10-06T18:09:28.112Z,1.70
2023-10-06T18:12:08.480Z,2.70
2023-10-06T18:14:42.000Z,1.93
2023-10-06T18:17:08.994Z,2.30
2023-10-06T18:19:36.414Z,1.73
2023-10-06T18:22:03.337Z,2.50
2023-10-06T18:24:30.221Z,2.20
2023-10-06T18:26:57.598Z,2.37
2023-10-06T18:29:26.132Z,1.70
2023-10-06T18:31:57.183Z,3.70
2023-10-06T18:34:24.114Z,2.23
2023-10-06T18:36:51.102Z,3.50
2023-10-06T18:39:21.854Z,2.73
2023-10-06T18:41:48.488Z,3.27
2023-10-06T18:44:17.712Z,2.60
2023-10-06T18:46:47.502Z,2.53
2023-10-06T18:49:16.050Z,3.87
2023-10-06T18:51:43.445Z,3.23
2023-10-06T18:54:11.122Z,3.63
2023-10-06T18:56:40.443Z,4.23
2023-10-06T18:59:06.975Z,5.47
2023-10-06T19:01:36.707Z,6.27
2023-10-06T19:04:10.597Z,5.87
2023-10-06T19:06:41.887Z,5.73
2023-10-06T19:09:11.827Z,3.93
2023-10-06T19:11:38.736Z,5.63
2023-10-06T19:14:06.099Z,6.40
2023-10-06T19:16:33.330Z,9.10
2023-10-06T19:19:01.073Z,9.47
2023-10-06T19:21:27.876Z,8.53
2023-10-06T19:23:55.584Z,9.97
2023-10-06T19:26:23.601Z,12.70
2023-10-06T19:28:50.507Z,24.30
2023-10-06T19:31:17.371Z,21.87
2023-10-06T19:33:48.612Z,16.33
2023-10-06T19:36:15.526Z,12.37
2023-10-06T19:38:47.410Z,8.73
2023-10-06T19:41:18.634Z,6.87
2023-10-06T19:43:45.957Z,5.53
2023-10-06T19:46:12.753Z,4.83
2023-10-06T19:48:54.890Z,6.37
2023-10-06T19:51:22.089Z,4.30
2023-10-06T19:53:48.643Z,4.43
2023-10-06T19:56:15.626Z,5.07
2023-10-06T19:58:42.120Z,3.60
2023-10-06T20:01:10.428Z,4.57
2023-10-06T20:03:38.978Z,4.30
2023-10-06T20:06:05.973Z,4.57
2023-10-06T20:08:33.428Z,3.10
2023-10-06T20:11:01.652Z,2.93
2023-10-06T20:13:29.998Z,3.03
2023-10-06T20:15:57.490Z,2.70
2023-10-06T20:18:24.052Z,2.80
2023-10-06T20:20:53.363Z,2.93
2023-10-06T20:23:20.583Z,3.17
2023-10-06T20:25:47.191Z,3.13
2023-10-06T20:28:14.145Z,2.90
2023-10-06T20:30:41.219Z,2.80
2023-10-06T20:33:07.888Z,1.77
2023-10-06T20:35:35.691Z,2.40
2023-10-06T20:38:03.095Z,2.17
2023-10-06T20:40:30.096Z,2.50
2023-10-06T20:42:58.231Z,2.50
2023-10-06T20:45:28.981Z,2.73
2023-10-06T20:47:56.718Z,2.43
2023-10-06T20:50:28.209Z,2.83
2023-10-06T20:52:55.715Z,3.27
2023-10-06T20:55:22.572Z,2.93
2023-10-06T20:57:50.873Z,4.27
2023-10-06T21:00:19.389Z,2.70
2023-10-06T21:02:47.841Z,2.27
2023-10-06T21:05:17.894Z,3.23
2023-10-06T21:07:45.123Z,2.67
2023-10-06T21:10:13.102Z,2.73
2023-10-06T21:12:43.333Z,2.23
2023-10-06T21:15:15.439Z,2.80
2023-10-06T21:17:48.409Z,2.07
2023-10-06T21:20:16.888Z,2.20
2023-10-06T21:22:44.248Z,2.70
2023-10-06T21:25:14.245Z,2.40
2023-10-06T21:27:41.333Z,2.77
2023-10-06T21:30:16.725Z,2.87
2023-10-06T21:32:44.418Z,3.27
2023-10-06T21:35:13.652Z,2.10
2023-10-06T21:37:40.913Z,2.97
2023-10-06T21:40:09.686Z,2.90
2023-10-06T21:42:36.646Z,2.87
2023-10-06T21:45:04.707Z,2.77
2023-10-06T21:47:32.393Z,2.43
2023-10-06T21:49:59.341Z,2.77
2023-10-06T21:52:27.665Z,2.10
2023-10-06T21:54:54.217Z,1.93
2023-10-06T21:57:20.652Z,2.47
2023-10-06T21:59:47.108Z,3.17
2023-10-06T22:02:14.401Z,2.40
2023-10-06T22:04:41.018Z,3.00
2023-10-06T22:07:07.659Z,2.23
2023-10-06T22:09:34.974Z,2.83
2023-10-06T22:12:01.772Z,3.43
2023-10-06T22:14:35.912Z,1.60
2023-10-06T22:17:06.507Z,3.57
2023-10-06T22:19:34.132Z,2.33
2023-10-06T22:22:01.542Z,2.53
2023-10-06T22:24:28.392Z,3.20
2023-10-06T22:26:58.509Z,3.63
2023-10-06T22:29:26.286Z,2.30
2023-10-06T22:31:53.241Z,2.33
2023-10-06T22:34:19.834Z,2.30
2023-10-06T22:36:46.419Z,2.27
2023-10-06T22:39:14.445Z,2.20
2023-10-06T22:41:41.213Z,2.90
2023-10-06T22:44:07.831Z,2.70
2023-10-06T22:46:34.472Z,3.10
2023-10-06T22:49:01.157Z,3.00
2023-10-06T22:51:27.700Z,2.10
2023-10-06T22:53:54.213Z,2.33
2023-10-06T22:56:20.676Z,2.67
2023-10-06T22:58:47.235Z,2.73
2023-10-06T23:01:15.571Z,2.53
2023-10-06T23:03:42.096Z,1.93
2023-10-06T23:06:10.031Z,2.63
2023-10-06T23:08:38.015Z,2.33
2023-10-06T23:11:05.810Z,1.90
2023-10-06T23:13:33.791Z,2.37
2023-10-06T23:16:05.249Z,2.70
2023-10-06T23:18:38.564Z,2.23
2023-10-06T23:21:08.792Z,2.63
2023-10-06T23:23:38.775Z,1.37
2023-10-06T23:26:09.823Z,1.97
2023-10-06T23:28:37.534Z,2.10
2023-10-06T23:31:04.576Z,2.40
2023-10-06T23:33:31.668Z,1.90
2023-10-06T23:35:59.665Z,2.10
2023-10-06T23:38:27.368Z,2.53
2023-10-06T23:40:54.158Z,2.23
2023-10-06T23:43:20.712Z,2.33
2023-10-06T23:45:48.284Z,2.13
2023-10-06T23:48:16.832Z,2.50
2023-10-06T23:50:53.349Z,1.43
2023-10-06T23:53:28.597Z,2.10
2023-10-06T23:56:02.362Z,1.50
2023-10-06T23:58:33.941Z,2.00
